Time;durP1;ratioP1;P1;durP2;ratioP2;P2;SDS_P1;SDS_P2;PMS_P1;PMS_P2;Temp;Humidity;BMP_temperature;BMP_pressure;BME280_temperature;BME280_humidity;BME280_pressure;Samples;Min_cycle;Max_cycle;Signal;HPM_P1;HPM_P2
2023/05/21 00:02:23;;;;;;;0.00;0.00;;;;;;;;;;6358462;22;20010;-89
2023/05/21 00:04:50;;;;;;;0.00;0.00;;;;;;;;;;6359505;22;20054;-90
2023/05/21 00:07:16;;;;;;;0.00;0.00;;;;;;;;;;6358912;22;20003;-90
2023/05/21 00:09:42;;;;;;;0.00;0.00;;;;;;;;;;6360051;22;20022;-91
2023/05/21 00:12:08;;;;;;;0.00;0.00;;;14.30;99.90;;;;;;6359716;22;20086;-91
2023/05/21 00:14:34;;;;;;;0.00;0.00;;;;;;;;;;6358609;22;20007;-90
2023/05/21 00:17:00;;;;;;;0.00;0.00;;;;;;;;;;6359753;22;19999;-91
2023/05/21 00:19:26;;;;;;;0.00;0.00;;;;;;;;;;6360128;22;20011;-89
2023/05/21 00:21:53;;;;;;;0.00;0.00;;;;;;;;;;6359172;22;20036;-91
2023/05/21 00:24:19;;;;;;;0.00;0.00;;;;;;;;;;6360120;22;20061;-91
2023/05/21 00:26:45;;;;;;;0.00;0.00;;;;;;;;;;6358642;22;20015;-90
2023/05/21 00:29:11;;;;;;;0.00;0.00;;;;;;;;;;6359517;22;20014;-91
2023/05/21 00:31:37;;;;;;;0.00;0.00;;;;;;;;;;6358631;22;20003;-90
2023/05/21 00:34:03;;;;;;;0.00;0.00;;;;;;;;;;6358673;22;20082;-90
2023/05/21 00:36:30;;;;;;;0.00;0.00;;;;;;;;;;6358753;22;19999;-91
2023/05/21 00:38:56;;;;;;;0.00;0.00;;;;;;;;;;6358282;22;20006;-90
2023/05/21 00:41:21;;;;;;;0.00;0.00;;;14.30;99.90;;;;;;6358754;22;19983;-91
2023/05/21 00:43:47;;;;;;;0.00;0.00;;;;;;;;;;6359785;22;20007;-91
2023/05/21 00:46:16;;;;;;;0.00;0.00;;;14.10;99.90;;;;;;6358741;22;20002;-90
2023/05/21 00:48:44;;;;;;;0.00;0.00;;;14.20;99.90;;;;;;6360608;22;20084;-89
2023/05/21 00:51:10;;;;;;;0.00;0.00;;;;;;;;;;6361191;22;20003;-91
2023/05/21 00:53:36;;;;;;;0.00;0.00;;;;;;;;;;6361196;22;20012;-90
2023/05/21 00:56:03;;;;;;;0.00;0.00;;;;;;;;;;6360538;22;20029;-91
2023/05/21 00:58:29;;;;;;;0.00;0.00;;;13.90;99.90;;;;;;6360762;22;19991;-91
2023/05/21 01:00:55;;;;;;;0.00;0.00;;;;;;;;;;6359485;22;19999;-90
2023/05/21 01:03:22;;;;;;;0.00;0.00;;;14.00;99.90;;;;;;6360520;22;20150;-90
2023/05/21 01:05:52;;;;;;;0.00;0.00;;;14.10;99.90;;;;;;6359598;22;20013;-91
2023/05/21 01:08:19;;;;;;;0.00;0.00;;;;;;;;;;6357993;22;20006;-90
2023/05/21 01:10:45;;;;;;;0.00;0.00;;;;;;;;;;6358701;22;20014;-91
2023/05/21 01:13:11;;;;;;;0.00;0.00;;;13.90;99.90;;;;;;6360080;22;20007;-90
2023/05/21 01:15:37;;;;;;;0.00;0.00;;;;;;;;;;6359800;22;20003;-90
2023/05/21 01:18:04;;;;;;;0.00;0.00;;;;;;;;;;6361348;22;19991;-90
2023/05/21 01:20:31;;;;;;;0.00;0.00;;;;;;;;;;6359928;22;20101;-90
2023/05/21 01:22:57;;;;;;;0.00;0.00;;;;;;;;;;6360761;22;20033;-91
2023/05/21 01:25:23;;;;;;;0.00;0.00;;;13.70;99.90;;;;;;6360907;22;20014;-90
2023/05/21 01:27:50;;;;;;;0.00;0.00;;;13.70;99.90;;;;;;6360650;22;20022;-91
2023/05/21 01:30:17;;;;;;;0.00;0.00;;;13.70;99.90;;;;;;6360225;22;20007;-90
2023/05/21 01:33:04;;;;;;;0.00;0.00;;;13.80;99.90;;;;;;6360011;22;20002;-91
2023/05/21 01:35:54;;;;;;;0.00;0.00;;;13.80;99.90;;;;;;6361306;22;19999;-90
2023/05/21 01:38:36;;;;;;;0.00;0.00;;;13.60;99.90;;;;;;6360778;22;20029;-89
2023/05/21 01:41:12;;;;;;;0.00;0.00;;;13.70;99.90;;;;;;6360912;22;19999;-91
2023/05/21 01:43:41;;;;;;;0.00;0.00;;;13.80;99.90;;;;;;6359627;22;20010;-91
2023/05/21 01:46:09;;;;;;;0.00;0.00;;;13.70;99.90;;;;;;6360762;22;20003;-91
2023/05/21 01:48:35;;;;;;;0.00;0.00;;;;;;;;;;6361948;22;20011;-92
2023/05/21 01:51:03;;;;;;;0.00;0.00;;;13.70;99.90;;;;;;6360698;22;20006;-90
2023/05/21 01:53:29;;;;;;;0.00;0.00;;;;;;;;;;6360607;22;20006;-90
2023/05/21 01:55:55;;;;;;;0.00;0.00;;;;;;;;;;6360198;22;20061;-91
2023/05/21 01:58:23;;;;;;;0.00;0.00;;;;;;;;;;6361305;22;20018;-90
2023/05/21 02:00:51;;;;;;;0.00;0.00;;;;;;;;;;6360311;22;20003;-90
2023/05/21 02:03:19;;;;;;;0.00;0.00;;;13.60;99.90;;;;;;6359549;22;19998;-87
2023/05/21 02:05:46;;;;;;;0.00;0.00;;;;;;;;;;6361216;22;20005;-92
2023/05/21 02:08:13;;;;;;;0.00;0.00;;;;;;;;;;6360100;22;20002;-91
2023/05/21 02:10:40;;;;;;;0.00;0.00;;;;;;;;;;6359903;22;20029;-90
2023/05/21 02:13:05;;;;;;;0.00;0.00;;;;;;;;;;6359892;22;20011;-90
2023/05/21 02:15:33;;;;;;;0.00;0.00;;;;;;;;;;6360115;22;20016;-91
2023/05/21 02:17:59;;;;;;;0.00;0.00;;;;;;;;;;6359170;22;20003;-89
2023/05/21 02:20:25;;;;;;;0.00;0.00;;;;;;;;;;6359837;22;20340;-91
2023/05/21 02:22:51;;;;;;;0.00;0.00;;;;;;;;;;6359400;22;20023;-90
2023/05/21 02:25:18;;;;;;;0.00;0.00;;;13.50;99.90;;;;;;6358698;22;20007;-90
2023/05/21 02:27:45;;;;;;;0.00;0.00;;;;;;;;;;6359102;22;20006;-89
2023/05/21 02:30:12;;;;;;;0.00;0.00;;;13.40;99.90;;;;;;6358286;22;20021;-91
2023/05/21 02:32:41;;;;;;;0.00;0.00;;;;;;;;;;6359100;22;20006;-91
2023/05/21 02:35:08;;;;;;;0.00;0.00;;;13.50;99.90;;;;;;6360492;22;19999;-89
2023/05/21 02:37:34;;;;;;;0.00;0.00;;;;;;;;;;6360408;22;20244;-91
2023/05/21 02:40:02;;;;;;;0.00;0.00;;;13.50;99.90;;;;;;6358664;22;20003;-90
2023/05/21 02:42:28;;;;;;;0.00;0.00;;;;;;;;;;6358608;22;20067;-91
2023/05/21 02:44:55;;;;;;;0.00;0.00;;;;;;;;;;6358346;22;20003;-91
2023/05/21 02:47:22;;;;;;;0.00;0.00;;;;;;;;;;6358405;22;20014;-91
2023/05/21 02:49:49;;;;;;;0.00;0.00;;;13.70;99.90;;;;;;6359044;22;20003;-90
2023/05/21 02:52:17;;;;;;;0.00;0.00;;;;;;;;;;6358334;22;20013;-91
2023/05/21 02:54:43;;;;;;;0.00;0.00;;;;;;;;;;6359739;22;20028;-91
2023/05/21 02:57:09;;;;;;;0.00;0.00;;;;;;;;;;6359507;22;19999;-91
2023/05/21 02:59:35;;;;;;;0.00;0.00;;;;;;;;;;6359192;22;20013;-91
2023/05/21 03:02:01;;;;;;;0.00;0.00;;;;;;;;;;6358853;22;20474;-90
2023/05/21 03:04:30;;;;;;;0.00;0.00;;;;;;;;;;6359972;22;20003;-91
2023/05/21 03:06:57;;;;;;;0.00;0.00;;;;;;;;;;6356999;22;20003;-90
2023/05/21 03:09:23;;;;;;;0.00;0.00;;;;;;;;;;6357941;22;20003;-91
2023/05/21 03:11:49;;;;;;;0.00;0.00;;;13.50;99.90;;;;;;6358860;22;20007;-91
2023/05/21 03:14:16;;;;;;;0.00;0.00;;;;;;;;;;6359305;22;20007;-89
2023/05/21 03:16:42;;;;;;;0.00;0.00;;;;;;;;;;6359182;22;20007;-90
2023/05/21 03:19:08;;;;;;;0.00;0.00;;;;;;;;;;6359195;22;20011;-91
2023/05/21 03:21:35;;;;;;;0.00;0.00;;;;;;;;;;6358230;22;19998;-91
2023/05/21 03:24:01;;;;;;;0.00;0.00;;;;;;;;;;6358919;22;20007;-91
2023/05/21 03:26:28;;;;;;;0.00;0.00;;;;;;;;;;6359521;22;20003;-91
2023/05/21 03:28:54;;;;;;;0.00;0.00;;;;;;;;;;6358120;22;20002;-89
2023/05/21 03:31:21;;;;;;;0.00;0.00;;;;;;;;;;6358451;22;20007;-89
2023/05/21 03:33:47;;;;;;;0.00;0.00;;;;;;;;;;6357665;22;20005;-90
2023/05/21 03:36:12;;;;;;;0.00;0.00;;;;;;;;;;6359591;22;19998;-90
2023/05/21 03:38:38;;;;;;;0.00;0.00;;;;;;;;;;6359132;22;20030;-89
2023/05/21 03:41:05;;;;;;;0.00;0.00;;;13.30;99.90;;;;;;6358786;22;20029;-90
2023/05/21 03:43:31;;;;;;;0.00;0.00;;;;;;;;;;6359217;22;20056;-92
2023/05/21 03:45:57;;;;;;;0.00;0.00;;;;;;;;;;6359095;22;20007;-91
2023/05/21 03:48:23;;;;;;;0.00;0.00;;;;;;;;;;6358636;22;20048;-89
2023/05/21 03:50:49;;;;;;;0.00;0.00;;;;;;;;;;6358120;22;20010;-91
2023/05/21 03:53:15;;;;;;;0.00;0.00;;;;;;;;;;6359701;22;20024;-91
2023/05/21 03:55:41;;;;;;;0.00;0.00;;;;;;;;;;6359497;22;20028;-90
2023/05/21 03:58:08;;;;;;;0.00;0.00;;;;;;;;;;6360118;22;20003;-91
2023/05/21 04:00:36;;;;;;;0.00;0.00;;;;;;;;;;6359150;22;19999;-91
2023/05/21 04:03:02;;;;;;;0.00;0.00;;;;;;;;;;6359156;22;20010;-90
2023/05/21 04:05:28;;;;;;;0.10;0.10;;;;;;;;;;6359027;22;20028;-91
2023/05/21 04:07:54;;;;;;;0.00;0.00;;;;;;;;;;6357704;22;20003;-89
2023/05/21 04:10:21;;;;;;;0.00;0.00;;;;;;;;;;6359615;22;20009;-90
2023/05/21 04:12:51;;;;;;;0.00;0.00;;;;;;;;;;6357893;22;20028;-90
2023/05/21 04:15:17;;;;;;;0.00;0.00;;;;;;;;;;6357952;22;19999;-90
2023/05/21 04:17:44;;;;;;;0.00;0.00;;;;;;;;;;6357855;22;20033;-91
2023/05/21 04:20:10;;;;;;;0.00;0.00;;;;;;;;;;6356924;22;20006;-90
2023/05/21 04:22:36;;;;;;;0.00;0.00;;;;;;;;;;6359190;22;20053;-91
2023/05/21 04:25:02;;;;;;;0.00;0.00;;;;;;;;;;6360286;22;20057;-91
2023/05/21 04:27:28;;;;;;;0.00;0.00;;;;;;;;;;6355960;22;20007;-90
2023/05/21 04:29:54;;;;;;;0.00;0.00;;;;;;;;;;6359574;22;20010;-91
2023/05/21 04:32:20;;;;;;;0.00;0.00;;;;;;;;;;6359194;22;20006;-90
2023/05/21 04:34:47;;;;;;;0.00;0.00;;;;;;;;;;6360003;22;20094;-90
2023/05/21 04:37:13;;;;;;;0.00;0.00;;;;;;;;;;6358010;22;19991;-90
2023/05/21 04:39:41;;;;;;;0.00;0.00;;;;;;;;;;6360008;22;20006;-90
2023/05/21 04:42:09;;;;;;;0.00;0.00;;;;;;;;;;6359495;22;19995;-90
2023/05/21 04:44:35;;;;;;;0.00;0.00;;;;;;;;;;6359286;22;20009;-90
2023/05/21 04:47:01;;;;;;;0.00;0.00;;;;;;;;;;6360140;22;20007;-91
2023/05/21 04:49:27;;;;;;;0.00;0.00;;;;;;;;;;6359896;22;20033;-90
2023/05/21 04:51:54;;;;;;;0.00;0.00;;;13.90;99.90;;;;;;6359379;22;20036;-92
2023/05/21 04:54:20;;;;;;;0.00;0.00;;;;;;;;;;6359728;22;20013;-91
2023/05/21 04:56:46;;;;;;;0.00;0.00;;;;;;;;;;6360018;22;20003;-90
2023/05/21 04:59:12;;;;;;;0.00;0.00;;;;;;;;;;6359280;22;20007;-90
2023/05/21 05:01:38;;;;;;;0.00;0.00;;;;;;;;;;6359076;22;19995;-91
2023/05/21 05:04:04;;;;;;;0.00;0.00;;;;;;;;;;6359896;22;19998;-90
2023/05/21 05:06:30;;;;;;;0.00;0.00;;;;;;;;;;6359726;22;19991;-91
2023/05/21 05:08:56;;;;;;;0.00;0.00;;;;;;;;;;6359282;22;20097;-89
2023/05/21 05:11:22;;;;;;;0.00;0.00;;;;;;;;;;6358878;22;20079;-91
2023/05/21 05:13:48;;;;;;;0.00;0.00;;;;;;;;;;6358730;22;20049;-90
2023/05/21 05:16:17;;;;;;;0.00;0.00;;;;;;;;;;6360028;22;20003;-90
2023/05/21 05:18:43;;;;;;;0.00;0.00;;;;;;;;;;6360472;22;20017;-91
2023/05/21 05:21:09;;;;;;;0.00;0.00;;;;;;;;;;6360457;22;19983;-90
2023/05/21 05:23:35;;;;;;;0.00;0.00;;;;;;;;;;6361038;22;20025;-91
2023/05/21 05:26:01;;;;;;;0.00;0.00;;;;;;;;;;6360387;22;20032;-89
2023/05/21 05:28:27;;;;;;;0.00;0.00;;;;;;;;;;6359879;22;20007;-90
2023/05/21 05:30:53;;;;;;;0.00;0.00;;;;;;;;;;6359710;22;20029;-89
2023/05/21 05:33:19;;;;;;;0.00;0.00;;;;;;;;;;6359936;22;20390;-90
2023/05/21 05:35:45;;;;;;;0.00;0.00;;;;;;;;;;6361451;22;19998;-90
2023/05/21 05:38:12;;;;;;;0.00;0.00;;;;;;;;;;6360707;22;20025;-89
2023/05/21 05:40:38;;;;;;;0.00;0.00;;;;;;;;;;6361137;22;20005;-91
2023/05/21 05:43:04;;;;;;;0.00;0.00;;;;;;;;;;6360796;22;20089;-90
2023/05/21 05:45:30;;;;;;;0.00;0.00;;;;;;;;;;6359170;22;20010;-91
2023/05/21 05:47:56;;;;;;;0.00;0.00;;;;;;;;;;6357729;22;19998;-91
2023/05/21 05:50:22;;;;;;;0.00;0.00;;;;;;;;;;6357930;22;20058;-90
2023/05/21 05:52:48;;;;;;;0.00;0.00;;;;;;;;;;6360053;22;20002;-90
2023/05/21 05:55:14;;;;;;;0.00;0.00;;;;;;;;;;6360254;22;19994;-90
2023/05/21 05:57:40;;;;;;;0.00;0.00;;;;;;;;;;6359236;22;20045;-91
2023/05/21 06:00:08;;;;;;;0.00;0.00;;;;;;;;;;6359337;22;19999;-92
2023/05/21 06:02:33;;;;;;;0.00;0.00;;;;;;;;;;6358675;22;20086;-90
2023/05/21 06:05:00;;;;;;;0.00;0.00;;;;;;;;;;6358243;22;20003;-90
2023/05/21 06:07:26;;;;;;;0.00;0.00;;;;;;;;;;6357883;22;20014;-90
2023/05/21 06:09:52;;;;;;;0.00;0.00;;;;;;;;;;6357162;22;20028;-91
2023/05/21 06:12:17;;;;;;;0.00;0.00;;;;;;;;;;6358365;22;20010;-89
2023/05/21 06:14:45;;;;;;;0.00;0.00;;;;;;;;;;6358481;22;20007;-89
2023/05/21 06:17:11;;;;;;;0.00;0.00;;;;;;;;;;6357184;22;20074;-90
2023/05/21 06:19:37;;;;;;;0.00;0.00;;;;;;;;;;6358315;22;20030;-89
2023/05/21 06:22:03;;;;;;;0.00;0.00;;;;;;;;;;6357197;22;20017;-89
2023/05/21 06:24:29;;;;;;;0.00;0.00;;;;;;;;;;6358473;22;20003;-89
2023/05/21 06:26:55;;;;;;;0.00;0.00;;;15.00;99.90;;;;;;6358290;22;20009;-91
2023/05/21 06:29:21;;;;;;;0.00;0.00;;;;;;;;;;6358483;22;20006;-90
2023/05/21 06:31:48;;;;;;;0.00;0.00;;;;;;;;;;6358855;22;20099;-91
2023/05/21 06:34:14;;;;;;;0.00;0.00;;;;;;;;;;6357201;22;20022;-90
2023/05/21 06:36:40;;;;;;;0.00;0.00;;;;;;;;;;6357426;22;20029;-88
2023/05/21 06:39:06;;;;;;;0.00;0.00;;;;;;;;;;6357840;22;20003;-90
2023/05/21 06:41:32;;;;;;;0.00;0.00;;;;;;;;;;6358606;22;20003;-90
2023/05/21 06:43:58;;;;;;;0.00;0.00;;;;;;;;;;6359571;22;20010;-90
2023/05/21 06:46:24;;;;;;;0.00;0.00;;;;;;;;;;6357068;22;20037;-89
2023/05/21 06:48:50;;;;;;;0.00;0.00;;;;;;;;;;6356341;22;20070;-90
2023/05/21 06:51:16;;;;;;;0.00;0.00;;;;;;;;;;6359413;22;20006;-89
2023/05/21 06:53:42;;;;;;;0.00;0.00;;;;;;;;;;6359639;22;20099;-91
2023/05/21 06:56:08;;;;;;;0.00;0.00;;;;;;;;;;6358255;22;20165;-89
2023/05/21 06:58:34;;;;;;;0.00;0.00;;;;;;;;;;6358397;22;20017;-90
2023/05/21 07:01:00;;;;;;;0.00;0.00;;;;;;;;;;6357015;22;20058;-91
2023/05/21 07:03:26;;;;;;;0.00;0.00;;;;;;;;;;6357326;22;20033;-91
2023/05/21 07:05:56;;;;;;;0.00;0.00;;;15.10;99.90;;;;;;6356561;22;20382;-90
2023/05/21 07:08:22;;;;;;;0.00;0.00;;;;;;;;;;6357201;22;20002;-91
2023/05/21 07:10:48;;;;;;;0.00;0.00;;;;;;;;;;6358942;22;20003;-90
2023/05/21 07:13:15;;;;;;;0.00;0.00;;;;;;;;;;6357506;22;20006;-91
2023/05/21 07:15:41;;;;;;;0.00;0.00;;;;;;;;;;6358211;22;19998;-90
2023/05/21 07:18:06;;;;;;;0.00;0.00;;;15.50;99.90;;;;;;6359679;22;20007;-88
2023/05/21 07:20:32;;;;;;;0.00;0.00;;;;;;;;;;6358701;22;20011;-89
2023/05/21 07:22:58;;;;;;;0.00;0.00;;;;;;;;;;6357673;22;20006;-91
2023/05/21 07:25:24;;;;;;;0.00;0.00;;;;;;;;;;6359054;22;20014;-90
2023/05/21 07:27:50;;;;;;;0.00;0.00;;;;;;;;;;6360108;22;20431;-88
2023/05/21 07:30:16;;;;;;;0.00;0.00;;;;;;;;;;6358952;22;20006;-89
2023/05/21 07:32:42;;;;;;;0.00;0.00;;;;;;;;;;6359549;22;20002;-90
2023/05/21 07:35:08;;;;;;;0.00;0.00;;;;;;;;;;6358864;22;20005;-87
2023/05/21 07:37:34;;;;;;;0.00;0.00;;;;;;;;;;6358874;22;20014;-88
2023/05/21 07:40:00;;;;;;;0.00;0.00;;;;;;;;;;6360754;22;20066;-90
2023/05/21 07:42:26;;;;;;;0.00;0.00;;;;;;;;;;6359098;22;20003;-90
2023/05/21 07:44:52;;;;;;;0.00;0.00;;;;;;;;;;6358925;22;20006;-89
2023/05/21 07:47:18;;;;;;;0.00;0.00;;;;;;;;;;6357438;22;20033;-90
2023/05/21 07:49:44;;;;;;;0.00;0.00;;;;;;;;;;6359008;22;20050;-90
2023/05/21 07:52:10;;;;;;;0.00;0.00;;;;;;;;;;6357411;22;20094;-89
2023/05/21 07:54:36;;;;;;;0.00;0.00;;;;;;;;;;6360371;22;20014;-90
2023/05/21 07:57:02;;;;;;;0.00;0.00;;;;;;;;;;6358658;22;20264;-89
2023/05/21 07:59:28;;;;;;;0.00;0.00;;;;;;;;;;6359605;22;20060;-89
2023/05/21 08:01:55;;;;;;;0.00;0.00;;;;;;;;;;6358449;22;19987;-90
2023/05/21 08:04:21;;;;;;;0.00;0.00;;;;;;;;;;6359405;22;20010;-91
2023/05/21 08:06:47;;;;;;;0.00;0.00;;;;;;;;;;6359344;22;19983;-90
2023/05/21 08:09:13;;;;;;;0.00;0.00;;;;;;;;;;6358714;22;20007;-90
2023/05/21 08:11:39;;;;;;;0.00;0.00;;;;;;;;;;6358754;22;20062;-91
2023/05/21 08:14:05;;;;;;;0.00;0.00;;;;;;;;;;6357297;22;20011;-89
2023/05/21 08:16:31;;;;;;;0.00;0.00;;;17.30;99.90;;;;;;6359193;22;20025;-90
2023/05/21 08:18:57;;;;;;;0.00;0.00;;;;;;;;;;6358400;22;20010;-90
2023/05/21 08:21:23;;;;;;;0.00;0.00;;;;;;;;;;6358445;22;19987;-90
2023/05/21 08:23:51;;;;;;;0.00;0.00;;;17.50;99.90;;;;;;6359792;22;20010;-89
2023/05/21 08:26:17;;;;;;;0.00;0.00;;;;;;;;;;6359289;22;19987;-89
2023/05/21 08:28:42;;;;;;;0.00;0.00;;;17.60;99.90;;;;;;6358764;22;20018;-90
2023/05/21 08:31:08;;;;;;;0.00;0.00;;;;;;;;;;6358826;22;20027;-91
2023/05/21 08:33:38;;;;;;;0.00;0.00;;;;;;;;;;6357898;22;20007;-90
2023/05/21 08:36:07;;;;;;;0.00;0.00;;;17.70;99.90;;;;;;6357452;22;19999;-88
2023/05/21 08:38:33;;;;;;;0.00;0.00;;;17.70;99.90;;;;;;6358079;22;19990;-90
2023/05/21 08:41:00;;;;;;;0.00;0.00;;;;;;;;;;6359484;22;20003;-90
2023/05/21 08:43:28;;;;;;;0.00;0.00;;;18.10;99.90;;;;;;6359314;22;20017;-91
2023/05/21 08:45:57;;;;;;;0.00;0.00;;;18.20;99.90;;;;;;6359716;22;20014;-90
2023/05/21 08:48:23;;;;;;;0.00;0.00;;;;;;;;;;6359090;22;20014;-92
2023/05/21 08:50:53;;;;;;;0.00;0.00;;;18.30;99.90;;;;;;6358968;22;20027;-89
2023/05/21 08:53:20;;;;;;;0.00;0.00;;;18.30;99.90;;;;;;6359196;22;20003;-92
2023/05/21 08:55:46;;;;;;;0.00;0.00;;;18.80;99.90;;;;;;6359884;22;20006;-90
2023/05/21 08:58:12;;;;;;;0.00;0.00;;;;;;;;;;6359124;22;19987;-91
2023/05/21 09:00:38;;;;;;;0.00;0.00;;;;;;;;;;6358912;22;20005;-90
2023/05/21 09:03:10;;;;;;;0.00;0.00;;;18.60;99.90;;;;;;6359836;22;20003;-90
2023/05/21 09:05:39;;;;;;;0.00;0.00;;;18.70;99.90;;;;;;6359355;22;20009;-90
2023/05/21 09:08:12;;;;;;;0.00;0.00;;;18.90;99.90;;;;;;6359400;22;20006;-89
2023/05/21 09:10:41;;;;;;;0.00;0.00;;;18.90;99.90;;;;;;6361215;22;19986;-90
2023/05/21 09:13:09;;;;;;;0.00;0.00;;;18.90;99.90;;;;;;6361710;22;20010;-90
2023/05/21 09:15:35;;;;;;;0.00;0.00;;;;;;;;;;6362986;22;20024;-88
2023/05/21 09:18:01;;;;;;;0.00;0.00;;;;;;;;;;6363214;22;20005;-91
2023/05/21 09:20:27;;;;;;;0.00;0.00;;;18.40;99.90;;;;;;6362447;22;19991;-91
2023/05/21 09:22:54;;;;;;;0.00;0.00;;;;;;;;;;6361965;22;20003;-91
2023/05/21 09:25:26;;;;;;;0.00;0.00;;;18.60;99.90;;;;;;6360516;22;19999;-89
2023/05/21 09:27:52;;;;;;;0.00;0.00;;;;;;;;;;6361617;22;20045;-91
2023/05/21 09:30:18;;;;;;;0.00;0.00;;;;;;;;;;6360966;22;20003;-91
2023/05/21 09:32:45;;;;;;;0.00;0.00;;;;;;;;;;6361194;22;20050;-91
2023/05/21 09:35:12;;;;;;;0.00;0.00;;;18.80;99.90;;;;;;6361038;22;20007;-91
2023/05/21 09:37:43;;;;;;;0.00;0.00;;;19.10;99.90;;;;;;6359888;22;19999;-90
2023/05/21 09:40:14;;;;;;;0.00;0.00;;;19.20;99.90;;;;;;6360252;22;19999;-89
2023/05/21 09:42:44;;;;;;;0.00;0.00;;;19.40;99.90;;;;;;6361799;22;20003;-89
2023/05/21 09:45:10;;;;;;;0.00;0.00;;;;;;;;;;6360722;22;19986;-90
2023/05/21 09:47:47;;;;;;;0.00;0.00;;;19.50;99.90;;;;;;6360764;22;19998;-91
2023/05/21 09:50:17;;;;;;;0.00;0.00;;;19.50;99.90;;;;;;6360943;22;20059;-90
2023/05/21 09:52:43;;;;;;;0.00;0.00;;;;;;;;;;6360615;22;19999;-90
2023/05/21 09:55:13;;;;;;;0.00;0.00;;;19.60;99.90;;;;;;6360046;22;20010;-90
2023/05/21 09:57:43;;;;;;;0.00;0.00;;;21.40;99.90;;;;;;6360668;22;20002;-90
2023/05/21 10:00:17;;;;;;;0.00;0.00;;;19.60;99.90;;;;;;6360291;22;20062;-90
2023/05/21 10:02:47;;;;;;;0.00;0.00;;;19.60;99.90;;;;;;6360876;22;20055;-90
2023/05/21 10:05:14;;;;;;;0.00;0.00;;;19.60;99.90;;;;;;6361076;22;19986;-89
2023/05/21 10:07:51;;;;;;;0.00;0.00;;;19.60;99.90;;;;;;6360705;22;19998;-88
2023/05/21 10:10:20;;;;;;;0.00;0.00;;;19.60;99.90;;;;;;6360669;22;20029;-89
2023/05/21 10:12:46;;;;;;;0.00;0.00;;;;;;;;;;6360022;22;20006;-90
2023/05/21 10:15:15;;;;;;;0.00;0.00;;;19.60;99.90;;;;;;6357710;22;20419;-88
2023/05/21 10:17:42;;;;;;;0.00;0.00;;;19.50;99.90;;;;;;6360026;22;19994;-89
2023/05/21 10:20:10;;;;;;;0.00;0.00;;;19.60;99.90;;;;;;6360514;22;20081;-90
2023/05/21 10:22:36;;;;;;;0.00;0.00;;;19.60;99.90;;;;;;6359981;22;20002;-90
2023/05/21 10:25:04;;;;;;;0.00;0.00;;;20.40;99.90;;;;;;6358885;22;20030;-88
2023/05/21 10:27:31;;;;;;;0.00;0.00;;;19.90;99.90;;;;;;6358679;22;20067;-89
2023/05/21 10:29:57;;;;;;;0.00;0.00;;;20.20;99.90;;;;;;6361013;22;20017;-91
2023/05/21 10:32:25;;;;;;;0.00;0.00;;;20.10;99.90;;;;;;6359345;22;20014;-89
2023/05/21 10:34:52;;;;;;;0.00;0.00;;;20.60;99.90;;;;;;6359200;22;20003;-89
2023/05/21 10:37:18;;;;;;;0.00;0.00;;;;;;;;;;6359326;22;20319;-88
2023/05/21 10:39:44;;;;;;;0.00;0.00;;;;;;;;;;6359406;22;19999;-88
2023/05/21 10:42:22;;;;;;;0.00;0.00;;;21.00;99.90;;;;;;6359222;22;20062;-90
2023/05/21 10:45:04;;;;;;;0.00;0.00;;;20.50;99.90;;;;;;6359478;22;20034;-87
2023/05/21 10:47:45;;;;;;;0.00;0.00;;;21.10;99.90;;;;;;6357455;22;20002;-88
2023/05/21 10:50:35;;;;;;;0.00;0.00;;;21.40;99.90;;;;;;6357796;22;20013;-88
2023/05/21 10:53:12;;;;;;;0.00;0.00;;;21.70;99.90;;;;;;6359506;22;20014;-88
2023/05/21 10:55:51;;;;;;;0.00;0.00;;;22.10;99.90;;;;;;6359293;22;19999;-89
2023/05/21 10:58:31;;;;;;;0.00;0.00;;;22.10;99.90;;;;;;6360520;22;20037;-90
2023/05/21 11:00:58;;;;;;;0.00;0.00;;;22.20;99.90;;;;;;6358751;22;19986;-86
2023/05/21 11:03:24;;;;;;;0.00;0.00;;;22.20;99.90;;;;;;6362726;22;20034;-89
2023/05/21 11:05:56;;;;;;;0.00;0.00;;;22.40;99.90;;;;;;6364492;22;20021;-91
2023/05/21 11:08:34;;;;;;;0.00;0.00;;;22.30;99.90;;;;;;6364142;22;20063;-88
2023/05/21 11:11:01;;;;;;;0.00;0.00;;;22.50;99.90;;;;;;6363875;22;20046;-90
2023/05/21 11:13:43;;;;;;;0.00;0.00;;;22.40;99.90;;;;;;6363702;22;20017;-89
2023/05/21 11:16:15;;;;;;;0.00;0.00;;;22.50;99.90;;;;;;6364509;22;20017;-89
2023/05/21 11:18:41;;;;;;;0.00;0.00;;;;;;;;;;6364568;22;20018;-89
2023/05/21 11:21:14;;;;;;;0.00;0.00;;;22.70;99.90;;;;;;6363209;22;19979;-89
2023/05/21 11:23:49;;;;;;;0.00;0.00;;;22.70;99.90;;;;;;6364238;22;20040;-89
2023/05/21 11:26:26;;;;;;;0.00;0.00;;;22.70;99.90;;;;;;6363718;22;20058;-90
2023/05/21 11:29:04;;;;;;;0.00;0.00;;;22.80;99.90;;;;;;6362741;22;20018;-88
2023/05/21 11:31:39;;;;;;;0.00;0.00;;;22.80;99.90;;;;;;6334333;22;20037;-90
2023/05/21 11:34:27;;;;;;;0.00;0.00;;;22.90;99.90;;;;;;6281315;22;20015;-92
2023/05/21 11:37:39;;;;;;;0.00;0.00;;;22.80;99.90;;;;;;6283183;22;19996;-92
2023/05/21 11:40:18;;;;;;;0.00;0.00;;;23.00;99.90;;;;;;6309323;22;20010;-90
2023/05/21 11:42:49;;;;;;;0.00;0.00;;;23.10;99.90;;;;;;6280906;22;20007;-90
2023/05/21 11:45:20;;;;;;;0.00;0.00;;;23.00;99.90;;;;;;6279809;22;20403;-90
2023/05/21 11:47:48;;;;;;;0.00;0.00;;;23.30;99.90;;;;;;6282244;22;20007;-90
2023/05/21 11:50:14;;;;;;;0.00;0.00;;;23.50;99.90;;;;;;6283206;22;20007;-88
2023/05/21 11:52:43;;;;;;;0.00;0.00;;;23.70;99.90;;;;;;6281951;22;20321;-91
2023/05/21 11:55:10;;;;;;;0.00;0.00;;;23.70;99.90;;;;;;6281888;22;20029;-90
2023/05/21 11:57:36;;;;;;;0.00;0.00;;;;;;;;;;6279819;22;20011;-92
2023/05/21 12:00:12;;;;;;;0.00;0.00;;;23.80;99.90;;;;;;6281572;22;20074;-91
2023/05/21 12:02:38;;;;;;;0.00;0.00;;;;;;;;;;6281502;22;20440;-91
2023/05/21 12:05:03;;;;;;;0.00;0.00;;;23.60;99.90;;;;;;6281158;22;20489;-91
2023/05/21 12:07:30;;;;;;;0.00;0.00;;;;;;;;;;6278064;22;20007;-91
2023/05/21 12:09:56;;;;;;;0.00;0.00;;;;;;;;;;6281194;22;20590;-91
2023/05/21 12:12:25;;;;;;;0.00;0.00;;;23.70;99.90;;;;;;6280734;22;20006;-87
2023/05/21 12:14:52;;;;;;;0.00;0.00;;;23.80;99.90;;;;;;6282520;22;20004;-91
2023/05/21 12:17:20;;;;;;;0.00;0.00;;;24.00;99.90;;;;;;6281808;22;19999;-91
2023/05/21 12:19:46;;;;;;;0.00;0.00;;;23.80;99.90;;;;;;6282738;22;20010;-91
2023/05/21 12:22:15;;;;;;;0.00;0.00;;;;;;;;;;6283039;22;20415;-91
2023/05/21 12:24:55;;;;;;;0.00;0.00;;;23.70;99.90;;;;;;6281956;22;20008;-92
2023/05/21 12:27:21;;;;;;;0.00;0.00;;;;;;;;;;6283880;22;20321;-91
2023/05/21 12:29:50;;;;;;;0.00;0.00;;;23.70;99.60;;;;;;6281302;22;20007;-91
2023/05/21 12:32:16;;;;;;;0.00;0.00;;;26.20;99.90;;;;;;6310349;22;20485;-92
2023/05/21 12:34:47;;;;;;;0.00;0.00;;;23.80;99.90;;;;;;6282400;22;20427;-90
2023/05/21 12:37:26;;;;;;;0.00;0.00;;;22.90;99.90;;;;;;6281040;22;20008;-90
2023/05/21 12:39:58;;;;;;;0.00;0.00;;;24.00;99.90;;;;;;6282055;22;20028;-92
2023/05/21 12:42:33;;;;;;;0.00;0.00;;;24.20;99.90;;;;;;6281905;22;20101;-90
2023/05/21 12:45:00;;;;;;;0.00;0.00;;;24.20;99.90;;;;;;6284368;22;20013;-91
2023/05/21 12:47:27;;;;;;;0.00;0.00;;;24.40;99.70;;;;;;6281461;22;20003;-91
2023/05/21 12:49:55;;;;;;;0.00;0.00;;;24.40;99.50;;;;;;6284833;22;20007;-90
2023/05/21 12:52:22;;;;;;;0.00;0.00;;;;;;;;;;6284065;22;20014;-90
2023/05/21 12:54:52;;;;;;;0.00;0.00;;;24.40;99.90;;;;;;6285769;22;20007;-90
2023/05/21 12:57:22;;;;;;;0.00;0.00;;;25.00;99.40;;;;;;6285659;22;20086;-92
2023/05/21 12:59:57;;;;;;;;;;;24.80;99.50;;;;;;6287436;22;19999;-92
2023/05/21 13:02:27;;;;;;;0.00;0.00;;;25.20;98.60;;;;;;6284984;22;19899;-88
2023/05/21 13:04:55;;;;;;;;;;;25.30;99.00;;;;;;6286407;22;20010;-90
2023/05/21 13:07:21;;;;;;;0.00;0.00;;;;;;;;;;6284845;22;20335;-92
2023/05/21 13:09:47;;;;;;;0.00;0.00;;;;;;;;;;6286421;22;20003;-91
2023/05/21 13:12:13;;;;;;;0.00;0.00;;;;;;;;;;6285930;22;20014;-92
2023/05/21 13:14:39;;;;;;;0.00;0.00;;;;;;;;;;6284651;22;20010;-90
2023/05/21 13:17:05;;;;;;;0.00;0.00;;;;;;;;;;6286254;22;20432;-92
2023/05/21 13:19:31;;;;;;;0.00;0.00;;;;;;;;;;6285628;22;20011;-93
2023/05/21 13:21:57;;;;;;;0.00;0.00;;;;;;;;;;6286150;22;20000;-88
2023/05/21 13:24:23;;;;;;;0.00;0.00;;;;;;;;;;6285483;22;20003;-87
2023/05/21 13:26:49;;;;;;;0.00;0.00;;;;;;;;;;6285447;22;20528;-90
2023/05/21 13:29:16;;;;;;;0.00;0.00;;;;;;;;;;6284051;22;20007;-91
2023/05/21 13:31:42;;;;;;;0.00;0.00;;;;;;;;;;6284096;22;20011;-89
2023/05/21 13:34:08;;;;;;;0.00;0.00;;;;;;;;;;6287692;22;20004;-90
2023/05/21 13:36:34;;;;;;;0.00;0.00;;;;;;;;;;6284150;22;20026;-91
2023/05/21 13:39:00;;;;;;;0.00;0.00;;;26.00;95.40;;;;;;6283630;22;20455;-91
2023/05/21 13:41:26;;;;;;;0.00;0.00;;;;;;;;;;6282941;22;19999;-91
2023/05/21 13:43:51;;;;;;;0.00;0.00;;;26.10;95.80;;;;;;6284280;22;20014;-92
2023/05/21 13:46:17;;;;;;;0.00;0.00;;;;;;;;;;6285279;22;20009;-91
2023/05/21 13:48:43;;;;;;;0.00;0.00;;;;;;;;;;6286131;22;20008;-90
2023/05/21 13:51:09;;;;;;;0.00;0.00;;;;;;;;;;6285214;22;20008;-91
2023/05/21 13:53:35;;;;;;;0.00;0.00;;;;;;;;;;6284455;22;20031;-91
2023/05/21 13:56:01;;;;;;;0.00;0.00;;;;;;;;;;6285101;22;20721;-90
2023/05/21 13:58:27;;;;;;;0.00;0.00;;;;;;;;;;6286345;22;19999;-92
2023/05/21 14:00:53;;;;;;;0.00;0.00;;;26.70;96.00;;;;;;6287911;22;20000;-92
2023/05/21 14:03:19;;;;;;;0.00;0.00;;;;;;;;;;6288000;22;20007;-91